Time;durP1;ratioP1;P1;durP2;ratioP2;P2;SDS_P1;SDS_P2;PMS_P1;PMS_P2;Temp;Humidity;BMP_temperature;BMP_pressure;BME280_temperature;BME280_humidity;BME280_pressure;Samples;Min_cycle;Max_cycle;Signal;HPM_P1;HPM_P2
2021/04/24 00:01:07;;;;;;;15.23;9.10;;;8.10;85.50;;;;;;6128992;23;20447;-86
2021/04/24 00:03:33;;;;;;;15.23;9.20;;;8.00;85.70;;;;;;6156023;23;20071;-85
2021/04/24 00:05:59;;;;;;;13.63;8.70;;;8.00;85.60;;;;;;6155498;23;20381;-87
2021/04/24 00:08:25;;;;;;;14.88;9.18;;;7.90;85.60;;;;;;6152241;23;20092;-86
2021/04/24 00:10:51;;;;;;;12.52;9.07;;;7.90;85.80;;;;;;6151900;23;20044;-86
2021/04/24 00:13:16;;;;;;;13.68;8.88;;;7.80;85.60;;;;;;6152748;23;20025;-85
2021/04/24 00:15:44;;;;;;;14.65;8.88;;;7.80;85.70;;;;;;6155762;23;20021;-86
2021/04/24 00:18:10;;;;;;;14.00;9.27;;;7.80;85.90;;;;;;6155476;23;20017;-86
2021/04/24 00:20:37;;;;;;;16.05;8.80;;;7.70;85.80;;;;;;6153522;23;20014;-86
2021/04/24 00:23:03;;;;;;;13.73;8.85;;;7.70;85.90;;;;;;6155833;23;20088;-86
2021/04/24 00:25:28;;;;;;;15.25;9.30;;;7.60;86.00;;;;;;6156177;23;20022;-85
2021/04/24 00:27:54;;;;;;;16.98;9.18;;;7.60;86.00;;;;;;6155135;23;20025;-86
2021/04/24 00:30:20;;;;;;;15.05;9.40;;;7.50;85.90;;;;;;6155708;23;20470;-86
2021/04/24 00:32:47;;;;;;;14.40;9.43;;;7.50;86.00;;;;;;6154746;23;20091;-85
2021/04/24 00:35:15;;;;;;;13.85;9.52;;;7.50;86.00;;;;;;6154051;23;20022;-86
2021/04/24 00:37:41;;;;;;;14.57;9.30;;;7.40;86.00;;;;;;6156045;23;20018;-87
2021/04/24 00:40:08;;;;;;;14.55;8.82;;;7.40;86.00;;;;;;6154850;23;20018;-86
2021/04/24 00:42:34;;;;;;;14.05;9.32;;;7.30;86.00;;;;;;6154761;23;20025;-86
2021/04/24 00:45:00;;;;;;;13.82;9.27;;;7.30;86.00;;;;;;6155223;23;20021;-86
2021/04/24 00:47:26;;;;;;;14.38;8.82;;;7.30;86.10;;;;;;6155066;23;20552;-86
2021/04/24 00:49:53;;;;;;;15.70;9.25;;;7.20;86.10;;;;;;6153267;23;20032;-86
2021/04/24 00:52:19;;;;;;;15.43;9.27;;;7.20;86.40;;;;;;6155109;23;20481;-86
2021/04/24 00:54:47;;;;;;;14.80;9.95;;;7.10;86.30;;;;;;6155914;23;20017;-85
2021/04/24 00:57:13;;;;;;;14.00;9.20;;;7.10;86.20;;;;;;6155389;23;20020;-85
2021/04/24 00:59:40;;;;;;;14.63;9.23;;;7.10;86.30;;;;;;6155422;23;20454;-86
2021/04/24 01:02:07;;;;;;;13.15;8.95;;;7.00;86.30;;;;;;6155190;23;20386;-86
2021/04/24 01:04:33;;;;;;;14.05;9.65;;;7.00;86.20;;;;;;6153977;23;20021;-86
2021/04/24 01:07:00;;;;;;;17.30;8.98;;;7.00;86.30;;;;;;6154295;23;20013;-85
2021/04/24 01:09:26;;;;;;;13.40;9.05;;;6.90;86.40;;;;;;6153780;23;20017;-85
2021/04/24 01:11:53;;;;;;;14.32;9.38;;;6.80;86.30;;;;;;6154093;23;20021;-85
2021/04/24 01:14:18;;;;;;;12.23;8.48;;;6.80;86.40;;;;;;6153111;23;20454;-86
2021/04/24 01:16:47;;;;;;;14.32;8.93;;;6.80;86.30;;;;;;6150767;23;20027;-85
2021/04/24 01:19:14;;;;;;;12.45;8.57;;;6.80;86.40;;;;;;6151630;23;20075;-85
2021/04/24 01:21:41;;;;;;;14.25;8.80;;;6.70;86.00;;;;;;6152047;23;20033;-85
2021/04/24 01:24:10;;;;;;;15.50;9.43;;;6.70;86.10;;;;;;6154121;23;20108;-85
2021/04/24 01:26:36;;;;;;;14.52;9.13;;;6.70;86.20;;;;;;6155137;23;20063;-85
2021/04/24 01:29:05;;;;;;;15.48;9.05;;;6.60;86.20;;;;;;6154464;23;20021;-86
2021/04/24 01:31:36;;;;;;;12.77;8.55;;;6.60;86.20;;;;;;6154716;23;20053;-86
2021/04/24 01:34:03;;;;;;;15.85;9.60;;;6.60;86.40;;;;;;6154896;23;20076;-86
2021/04/24 01:36:29;;;;;;;13.32;8.93;;;6.50;86.60;;;;;;6154429;23;20021;-86
2021/04/24 01:38:55;;;;;;;15.18;8.60;;;6.50;86.60;;;;;;6153928;23;20018;-85
2021/04/24 01:41:21;;;;;;;12.55;8.43;;;6.40;86.70;;;;;;6154843;23;20045;-85
2021/04/24 01:43:51;;;;;;;16.08;8.80;;;6.40;86.50;;;;;;6155377;23;20018;-85
2021/04/24 01:46:17;;;;;;;12.30;8.43;;;6.40;86.40;;;;;;6154108;23;20033;-85
2021/04/24 01:48:43;;;;;;;13.45;8.25;;;6.30;86.10;;;;;;6154949;23;20013;-85
2021/04/24 01:51:11;;;;;;;13.60;8.85;;;6.30;86.30;;;;;;6154592;23;20041;-86
2021/04/24 01:53:38;;;;;;;12.18;8.23;;;6.30;86.40;;;;;;6154498;23;20041;-86
2021/04/24 01:56:10;;;;;;;13.38;8.80;;;6.30;86.60;;;;;;6156193;23;20454;-85
2021/04/24 01:58:36;;;;;;;16.60;9.43;;;6.20;86.60;;;;;;6156771;23;20024;-85
2021/04/24 02:01:12;;;;;;;15.82;8.88;;;6.20;86.60;;;;;;6156657;23;20017;-86
2021/04/24 02:03:38;;;;;;;13.63;8.35;;;6.20;86.60;;;;;;6156997;23;20517;-85
2021/04/24 02:06:05;;;;;;;14.25;8.93;;;6.20;86.60;;;;;;6155545;23;20343;-85
2021/04/24 02:08:40;;;;;;;12.23;8.63;;;6.10;86.60;;;;;;6156311;23;20278;-85
2021/04/24 02:11:07;;;;;;;12.40;8.07;;;6.10;86.60;;;;;;6155949;23;20096;-85
2021/04/24 02:13:35;;;;;;;13.85;8.32;;;6.00;86.60;;;;;;6158447;23;20341;-85
2021/04/24 02:16:04;;;;;;;11.93;8.40;;;6.00;86.80;;;;;;6158773;23;20315;-84
2021/04/24 02:18:29;;;;;;;14.38;9.02;;;6.00;87.20;;;;;;6158665;23;20017;-86
2021/04/24 02:20:55;;;;;;;13.93;8.60;;;6.00;87.40;;;;;;6155687;23;20064;-86
2021/04/24 02:23:22;;;;;;;11.73;8.45;;;6.00;87.70;;;;;;6128956;23;20052;-85
2021/04/24 02:25:48;;;;;;;13.50;8.35;;;6.00;87.80;;;;;;6153454;23;20030;-85
2021/04/24 02:28:14;;;;;;;12.43;8.70;;;6.00;87.60;;;;;;6128213;23;20020;-85
2021/04/24 02:30:40;;;;;;;15.40;8.80;;;5.90;87.50;;;;;;6154019;23;20014;-85
2021/04/24 02:33:07;;;;;;;11.85;7.78;;;5.90;87.40;;;;;;6155784;23;20085;-85
2021/04/24 02:35:48;;;;;;;13.88;8.57;;;5.90;87.10;;;;;;6154560;23;20092;-85
2021/04/24 02:38:19;;;;;;;12.52;7.95;;;5.90;87.00;;;;;;6156452;23;20018;-85
2021/04/24 02:40:46;;;;;;;13.80;8.98;;;5.80;87.20;;;;;;6156698;23;20021;-85
2021/04/24 02:43:13;;;;;;;13.93;8.43;;;5.80;87.30;;;;;;6156742;23;20013;-86
2021/04/24 02:45:38;;;;;;;14.57;8.93;;;5.80;87.30;;;;;;6156117;23;20439;-84
2021/04/24 02:48:05;;;;;;;13.75;8.23;;;5.80;87.30;;;;;;6156737;23;20129;-85
2021/04/24 02:50:30;;;;;;;14.70;8.65;;;5.70;87.50;;;;;;6155704;23;20100;-84
2021/04/24 02:52:56;;;;;;;14.32;8.85;;;5.70;87.50;;;;;;6155227;23;20021;-85
2021/04/24 02:55:22;;;;;;;11.48;7.65;;;5.70;87.80;;;;;;6155938;23;20021;-85
2021/04/24 02:57:48;;;;;;;16.63;8.63;;;5.70;87.70;;;;;;6156371;23;20017;-85
2021/04/24 03:00:17;;;;;;;13.30;8.48;;;5.60;87.80;;;;;;6156639;23;20342;-84
2021/04/24 03:02:43;;;;;;;14.68;8.27;;;5.60;87.90;;;;;;6155766;23;20018;-84
2021/04/24 03:05:11;;;;;;;15.65;8.98;;;5.60;87.70;;;;;;6155964;23;20055;-84
2021/04/24 03:07:38;;;;;;;13.68;7.53;;;5.60;87.90;;;;;;6153753;23;20014;-85
2021/04/24 03:10:06;;;;;;;11.63;7.88;;;5.60;87.90;;;;;;6155898;23;20045;-84
2021/04/24 03:12:33;;;;;;;13.75;8.73;;;5.50;87.70;;;;;;6156001;23;20021;-85
2021/04/24 03:14:59;;;;;;;13.93;8.18;;;5.50;87.60;;;;;;6156516;23;20021;-84
2021/04/24 03:17:24;;;;;;;14.15;8.50;;;5.50;87.60;;;;;;6156180;23;20308;-85
2021/04/24 03:19:50;;;;;;;12.15;7.75;;;5.40;87.70;;;;;;6155960;23;20025;-83
2021/04/24 03:22:16;;;;;;;12.65;8.55;;;5.40;87.70;;;;;;6155854;23;20032;-84
2021/04/24 03:24:42;;;;;;;14.68;8.88;;;5.40;88.10;;;;;;6155517;23;20308;-84
2021/04/24 03:27:08;;;;;;;11.43;7.80;;;5.40;88.40;;;;;;6156337;23;20021;-84
2021/04/24 03:29:34;;;;;;;13.43;7.97;;;5.40;88.40;;;;;;6154299;23;20085;-84
2021/04/24 03:32:00;;;;;;;11.68;7.78;;;5.40;88.10;;;;;;6152752;23;20036;-85
2021/04/24 03:34:25;;;;;;;13.40;7.25;;;5.40;88.20;;;;;;6152891;23;20017;-85
2021/04/24 03:36:51;;;;;;;11.00;7.35;;;5.30;87.80;;;;;;6150675;23;20029;-85
2021/04/24 03:39:17;;;;;;;11.38;7.15;;;5.30;87.40;;;;;;6154314;23;20014;-84
2021/04/24 03:41:43;;;;;;;11.52;7.43;;;5.30;87.30;;;;;;6154328;23;20021;-85
2021/04/24 03:44:08;;;;;;;11.40;7.20;;;5.20;87.30;;;;;;6154932;23;20013;-85
2021/04/24 03:46:34;;;;;;;12.60;7.20;;;5.20;87.60;;;;;;6154233;23;20029;-84
2021/04/24 03:49:00;;;;;;;10.43;6.88;;;5.20;87.60;;;;;;6155545;23;20013;-85
2021/04/24 03:51:25;;;;;;;13.30;7.22;;;5.10;87.60;;;;;;6154732;23;20124;-84
2021/04/24 03:53:51;;;;;;;10.50;7.13;;;5.10;87.50;;;;;;6154091;23;20076;-84
2021/04/24 03:56:17;;;;;;;10.80;7.03;;;5.10;87.80;;;;;;6155367;23;20025;-85
2021/04/24 03:58:43;;;;;;;11.48;7.13;;;5.00;87.70;;;;;;6153628;23;20013;-83
2021/04/24 04:01:08;;;;;;;10.40;6.78;;;5.00;87.50;;;;;;6154878;23;20040;-84
2021/04/24 04:03:34;;;;;;;11.32;6.93;;;5.00;87.60;;;;;;6155193;23;20022;-85
2021/04/24 04:06:00;;;;;;;10.98;6.65;;;4.90;87.50;;;;;;6154864;23;20495;-84
2021/04/24 04:08:25;;;;;;;11.38;6.95;;;4.90;87.40;;;;;;6152193;23;20017;-84
2021/04/24 04:10:51;;;;;;;10.38;6.90;;;4.90;87.30;;;;;;6148450;23;20021;-83
2021/04/24 04:13:17;;;;;;;11.60;6.28;;;4.80;87.20;;;;;;6154807;23;20058;-85
2021/04/24 04:15:44;;;;;;;10.93;6.70;;;4.80;87.00;;;;;;6154483;23;20068;-84
2021/04/24 04:18:18;;;;;;;10.00;6.50;;;4.80;87.40;;;;;;6155036;23;20454;-84
2021/04/24 04:20:46;;;;;;;11.15;6.55;;;4.80;88.00;;;;;;6154869;23;20018;-84
2021/04/24 04:23:12;;;;;;;9.57;6.47;;;4.80;88.00;;;;;;6155940;23;20080;-84
2021/04/24 04:25:39;;;;;;;11.05;6.53;;;4.80;88.30;;;;;;6155307;23;20480;-84
2021/04/24 04:28:06;;;;;;;10.32;6.50;;;4.80;88.30;;;;;;6155333;23;20014;-85
2021/04/24 04:30:32;;;;;;;11.35;6.93;;;4.80;88.30;;;;;;6155245;23;20022;-84
2021/04/24 04:32:59;;;;;;;11.80;6.68;;;4.80;88.60;;;;;;6156076;23;20144;-85
2021/04/24 04:35:25;;;;;;;12.50;7.28;;;4.80;88.90;;;;;;6155127;23;20041;-85
2021/04/24 04:37:51;;;;;;;9.73;5.88;;;4.80;88.80;;;;;;6155730;23;20319;-84
2021/04/24 04:40:18;;;;;;;11.25;6.60;;;4.80;88.60;;;;;;6155988;23;20041;-86
2021/04/24 04:42:44;;;;;;;9.93;6.25;;;4.70;88.60;;;;;;6155062;23;20069;-86
2021/04/24 04:45:12;;;;;;;10.70;6.35;;;4.80;88.90;;;;;;6156199;23;20018;-85
2021/04/24 04:47:38;;;;;;;9.18;6.10;;;4.80;88.30;;;;;;6154513;23;20025;-85
2021/04/24 04:50:10;;;;;;;9.38;5.53;;;4.70;87.80;;;;;;6155444;23;20022;-84
2021/04/24 04:52:36;;;;;;;8.95;5.50;;;4.70;88.00;;;;;;6155528;23;20018;-85
2021/04/24 04:55:04;;;;;;;10.15;6.07;;;4.60;87.70;;;;;;6155047;23;20017;-85
2021/04/24 04:57:29;;;;;;;11.02;6.72;;;4.60;87.80;;;;;;6155560;23;20041;-83
2021/04/24 04:59:56;;;;;;;10.02;6.40;;;4.60;87.90;;;;;;6155147;23;20462;-85
2021/04/24 05:02:21;;;;;;;9.32;6.22;;;4.60;87.90;;;;;;6155299;23;20065;-85
2021/04/24 05:04:47;;;;;;;10.10;5.78;;;4.60;88.00;;;;;;6155272;23;20017;-85
2021/04/24 05:07:13;;;;;;;9.48;6.13;;;4.50;87.80;;;;;;6155748;23;20017;-85
2021/04/24 05:09:39;;;;;;;11.07;6.65;;;4.50;87.80;;;;;;6154663;23;20021;-84
2021/04/24 05:12:05;;;;;;;10.18;6.20;;;4.50;88.10;;;;;;6155074;23;20533;-84
2021/04/24 05:14:31;;;;;;;9.65;5.60;;;4.50;88.40;;;;;;6154614;23;20113;-83
2021/04/24 05:16:57;;;;;;;11.88;6.03;;;4.50;88.50;;;;;;6154336;23;20045;-83
2021/04/24 05:19:23;;;;;;;9.27;6.30;;;4.50;88.50;;;;;;6153395;23;20018;-86
2021/04/24 05:21:49;;;;;;;9.23;6.30;;;4.50;88.50;;;;;;6148431;23;20029;-86
2021/04/24 05:24:15;;;;;;;11.18;6.18;;;4.50;88.80;;;;;;6149789;23;20017;-88
2021/04/24 05:26:41;;;;;;;9.48;5.82;;;4.40;88.80;;;;;;6154184;23;20060;-84
2021/04/24 05:29:07;;;;;;;9.38;5.95;;;4.50;88.50;;;;;;6154757;23;20339;-84
2021/04/24 05:31:33;;;;;;;9.10;5.80;;;4.50;88.30;;;;;;6154411;23;20022;-84
2021/04/24 05:33:58;;;;;;;8.85;5.88;;;4.40;88.10;;;;;;6155588;23;20031;-84
2021/04/24 05:36:25;;;;;;;9.35;6.22;;;4.50;88.10;;;;;;6154769;23;20026;-85
2021/04/24 05:38:52;;;;;;;10.00;6.40;;;4.50;88.10;;;;;;6153504;23;20037;-85
2021/04/24 05:41:22;;;;;;;9.15;6.28;;;4.50;88.10;;;;;;6153986;23;20104;-85
2021/04/24 05:43:53;;;;;;;9.88;5.93;;;4.50;87.90;;;;;;6153248;23;20447;-86
2021/04/24 05:46:20;;;;;;;10.77;6.68;;;4.50;88.00;;;;;;6153918;23;20036;-86
2021/04/24 05:48:47;;;;;;;10.73;6.40;;;4.50;88.10;;;;;;6154340;23;20018;-86
2021/04/24 05:51:13;;;;;;;10.50;6.55;;;4.50;88.10;;;;;;6153922;23;20017;-86
2021/04/24 05:53:40;;;;;;;12.77;6.97;;;4.60;88.00;;;;;;6154088;23;20056;-85
2021/04/24 05:56:06;;;;;;;11.02;6.78;;;4.60;88.20;;;;;;6154072;23;20517;-87
2021/04/24 05:58:32;;;;;;;9.85;6.68;;;4.60;88.10;;;;;;6154479;23;20049;-86
2021/04/24 06:01:14;;;;;;;10.18;6.15;;;4.60;88.10;;;;;;6152943;23;20342;-87
2021/04/24 06:03:40;;;;;;;11.43;6.57;;;4.70;87.90;;;;;;6154988;23;20022;-87
2021/04/24 06:06:14;;;;;;;12.45;7.40;;;4.70;88.30;;;;;;6128955;23;20347;-86
2021/04/24 06:08:48;;;;;;;12.18;6.80;;;4.70;88.50;;;;;;6151990;23;20049;-87
2021/04/24 06:11:26;;;;;;;12.60;6.20;;;4.70;88.20;;;;;;6154502;23;20032;-87
2021/04/24 06:13:52;;;;;;;12.57;6.70;;;4.80;88.10;;;;;;6154354;23;20029;-86
2021/04/24 06:16:24;;;;;;;14.23;7.68;;;4.80;87.90;;;;;;6154932;23;20021;-85
2021/04/24 06:18:53;;;;;;;16.02;8.70;;;4.90;88.20;;;;;;6155017;23;20025;-85
2021/04/24 06:21:21;;;;;;;10.93;7.40;;;4.90;88.60;;;;;;6155421;23;20041;-90
2021/04/24 06:23:52;;;;;;;12.60;7.47;;;5.00;88.70;;;;;;6153611;23;20316;-86
2021/04/24 06:26:18;;;;;;;16.05;8.75;;;5.20;89.40;;;;;;6154121;23;20462;-87
2021/04/24 06:28:44;;;;;;;13.18;7.63;;;5.20;89.80;;;;;;6155055;23;20017;-85
2021/04/24 06:31:10;;;;;;;11.75;7.50;;;5.40;89.70;;;;;;6155575;23;20022;-84
2021/04/24 06:33:35;;;;;;;15.73;7.60;;;5.50;89.80;;;;;;6153992;23;20017;-84
2021/04/24 06:36:02;;;;;;;15.68;7.55;;;5.60;89.70;;;;;;6154712;23;20022;-84
2021/04/24 06:38:28;;;;;;;21.17;7.78;;;5.80;89.50;;;;;;6155694;23;20025;-85
2021/04/24 06:40:53;;;;;;;15.98;6.88;;;5.90;90.10;;;;;;6154970;23;20017;-84
2021/04/24 06:43:19;;;;;;;12.75;6.50;;;6.00;89.20;;;;;;6157098;23;20333;-85
2021/04/24 06:45:45;;;;;;;14.68;6.47;;;6.20;89.00;;;;;;6156673;23;20027;-84
2021/04/24 06:48:10;;;;;;;11.57;6.10;;;6.30;88.60;;;;;;6156744;23;20014;-85
2021/04/24 06:50:36;;;;;;;12.88;6.45;;;6.40;88.40;;;;;;6156579;23;20098;-85
2021/04/24 06:53:03;;;;;;;13.52;6.15;;;6.50;88.00;;;;;;6156423;23;20017;-83
2021/04/24 06:55:29;;;;;;;12.40;5.97;;;6.60;87.90;;;;;;6156190;23;20390;-82
2021/04/24 06:57:55;;;;;;;13.27;5.90;;;6.70;87.50;;;;;;6156977;23;20458;-83
2021/04/24 07:00:21;;;;;;;12.90;6.38;;;6.80;87.40;;;;;;6156890;23;20017;-82
2021/04/24 07:02:49;;;;;;;12.25;6.00;;;6.90;87.00;;;;;;6154526;23;20017;-85
2021/04/24 07:05:15;;;;;;;13.13;5.00;;;7.00;86.80;;;;;;6156805;23;20092;-88
2021/04/24 07:07:43;;;;;;;12.77;4.78;;;7.10;86.30;;;;;;6156782;23;20018;-85
2021/04/24 07:10:10;;;;;;;11.30;5.90;;;7.30;85.60;;;;;;6156421;23;20075;-86
2021/04/24 07:12:47;;;;;;;;;;;;;;;;;;;;;
2021/04/24 07:15:14;;;;;;;12.45;4.93;;;7.40;85.00;;;;;;6151785;23;20096;-85
2021/04/24 07:17:40;;;;;;;15.18;4.90;;;7.50;84.80;;;;;;6155714;23;20025;-84
2021/04/24 07:20:07;;;;;;;10.55;4.60;;;7.60;84.50;;;;;;6156785;23;20017;-84
2021/04/24 07:22:32;;;;;;;11.77;4.97;;;7.70;84.00;;;;;;6156312;23;20013;-85
2021/04/24 07:24:58;;;;;;;9.15;5.25;;;7.70;84.10;;;;;;6156200;23;20382;-86
2021/04/24 07:27:24;;;;;;;13.10;5.20;;;7.80;84.30;;;;;;6156846;23;20017;-88
2021/04/24 07:29:50;;;;;;;12.88;4.88;;;7.80;84.20;;;;;;6156053;23;20013;-87
2021/04/24 07:32:30;;;;;;;11.82;4.82;;;7.90;83.90;;;;;;6155617;23;20013;-87
2021/04/24 07:34:57;;;;;;;10.65;4.75;;;7.90;83.60;;;;;;6156066;23;20020;-85
2021/04/24 07:37:26;;;;;;;11.98;5.10;;;8.00;83.80;;;;;;6155221;23;20041;-89
2021/04/24 07:39:51;;;;;;;11.05;5.00;;;8.00;83.90;;;;;;6155306;23;20058;-89
2021/04/24 07:42:18;;;;;;;11.65;5.20;;;8.10;83.90;;;;;;6156793;23;20137;-89
2021/04/24 07:44:50;;;;;;;11.93;4.53;;;8.10;83.80;;;;;;6154993;23;20025;-89
2021/04/24 07:47:22;;;;;;;13.18;5.38;;;8.20;83.70;;;;;;6156391;23;20026;-88
2021/04/24 07:50:06;;;;;;;11.20;4.95;;;8.20;83.20;;;;;;6156381;23;20439;-88
2021/04/24 07:52:31;;;;;;;10.48;3.85;;;8.30;82.90;;;;;;6154098;23;20021;-87
2021/04/24 07:55:00;;;;;;;9.27;3.72;;;8.40;82.20;;;;;;6156907;23;20029;-89
2021/04/24 07:57:28;;;;;;;12.77;4.65;;;8.40;81.40;;;;;;6154602;23;20088;-88
2021/04/24 07:59:59;;;;;;;12.18;4.47;;;8.50;81.80;;;;;;6156643;23;20025;-89
2021/04/24 08:02:32;;;;;;;12.07;4.78;;;8.60;81.30;;;;;;6156971;23;20041;-88
2021/04/24 08:05:00;;;;;;;16.50;4.88;;;8.70;81.40;;;;;;6155796;23;20021;-88
2021/04/24 08:07:28;;;;;;;12.77;4.60;;;8.80;81.30;;;;;;6157164;23;20024;-89
2021/04/24 08:09:54;;;;;;;10.95;4.22;;;8.80;80.80;;;;;;6159248;23;20017;-89
2021/04/24 08:12:29;;;;;;;13.95;4.55;;;8.90;80.90;;;;;;6155332;23;20096;-90
2021/04/24 08:15:11;;;;;;;13.65;4.18;;;9.00;79.30;;;;;;6156669;23;20088;-89
2021/04/24 08:17:38;;;;;;;12.80;4.65;;;9.10;78.90;;;;;;6156773;23;20021;-89
2021/04/24 08:20:08;;;;;;;10.63;4.60;;;9.10;78.90;;;;;;6156000;23;20021;-89
2021/04/24 08:22:43;;;;;;;10.88;4.43;;;9.20;78.20;;;;;;6156616;23;20079;-89
2021/04/24 08:25:13;;;;;;;10.73;4.53;;;9.20;78.00;;;;;;6155941;23;20021;-89
2021/04/24 08:27:48;;;;;;;13.57;4.28;;;9.30;78.90;;;;;;6155293;23;20036;-89
2021/04/24 08:30:15;;;;;;;11.65;4.57;;;9.30;78.70;;;;;;6156771;23;20084;-89
2021/04/24 08:32:50;;;;;;;7.88;4.13;;;9.40;79.40;;;;;;6155427;23;20017;-89
2021/04/24 08:35:19;;;;;;;14.80;4.85;;;9.50;80.40;;;;;;6156379;23;20101;-89
2021/04/24 08:37:48;;;;;;;13.13;4.05;;;9.50;80.80;;;;;;6156537;23;20328;-89
2021/04/24 08:40:15;;;;;;;11.75;4.20;;;9.60;79.90;;;;;;6156377;23;20028;-89
2021/04/24 08:43:46;;;;;;;18.27;4.50;;;9.70;79.30;;;;;;6155931;23;20442;-89
2021/04/24 08:46:35;;;;;;;10.43;3.72;;;9.80;78.70;;;;;;6125163;23;20026;-90
2021/04/24 08:52:23;;;;;;;12.88;3.67;;;10.00;79.10;;;;;;6095077;23;20093;-90
2021/04/24 08:54:54;;;;;;;12.95;3.78;;;10.10;79.10;;;;;;6098217;23;20070;-88
2021/04/24 08:57:26;;;;;;;11.93;3.60;;;10.20;77.80;;;;;;6126692;23;20013;-90
2021/04/24 08:59:51;;;;;;;7.82;3.50;;;10.30;77.00;;;;;;6126766;23;20068;-88
2021/04/24 09:02:52;;;;;;;11.35;3.80;;;10.40;78.10;;;;;;6126006;23;20017;-88
2021/04/24 09:05:22;;;;;;;9.02;3.63;;;10.50;78.40;;;;;;6126664;23;20351;-91
2021/04/24 09:08:18;;;;;;;11.07;3.38;;;10.60;78.50;;;;;;6126065;23;20081;-89
2021/04/24 09:10:58;;;;;;;9.18;3.70;;;10.70;77.50;;;;;;6126627;23;20073;-89
2021/04/24 09:14:07;;;;;;;10.00;3.60;;;10.70;78.00;;;;;;6126329;23;20025;-90
2021/04/24 09:17:15;;;;;;;9.70;3.70;;;10.90;78.20;;;;;;6125355;23;20485;-88
2021/04/24 09:19:48;;;;;;;11.55;3.55;;;11.00;79.00;;;;;;6126276;23;20038;-91
2021/04/24 09:22:46;;;;;;;8.82;3.20;;;11.20;78.50;;;;;;6126578;23;20025;-88
2021/04/24 09:25:48;;;;;;;6.70;2.95;;;11.30;78.60;;;;;;6126712;23;20077;-89
2021/04/24 09:31:51;;;;;;;10.77;2.72;;;11.40;76.10;;;;;;6126480;23;20053;-89
2021/04/24 09:34:20;;;;;;;10.75;3.25;;;11.50;72.90;;;;;;6126693;23;20041;-90
2021/04/24 09:37:01;;;;;;;10.35;3.30;;;11.50;72.80;;;;;;6124627;23;20486;-88
2021/04/24 09:40:08;;;;;;;10.80;3.53;;;11.60;74.80;;;;;;6125734;23;20018;-92
2021/04/24 09:46:34;;;;;;;9.70;3.40;;;11.70;72.70;;;;;;6156570;23;20025;-89
2021/04/24 09:53:25;;;;;;;7.68;2.83;;;11.60;70.20;;;;;;6097238;23;20081;-88
2021/04/24 09:56:00;;;;;;;9.98;3.50;;;11.70;74.40;;;;;;6095036;23;20875;-86
2021/04/24 09:58:40;;;;;;;9.68;3.65;;;11.80;74.00;;;;;;6096199;23;20021;-84
2021/04/24 10:05:23;;;;;;;8.90;2.75;;;12.00;72.30;;;;;;6135181;23;20084;-92
2021/04/24 10:12:10;;;;;;;11.23;3.03;;;12.10;71.90;;;;;;6163653;23;20040;-89
2021/04/24 10:14:54;;;;;;;9.05;2.88;;;12.20;71.30;;;;;;6185413;23;20458;-94
2021/04/24 10:17:20;;;;;;;12.55;3.28;;;12.30;72.60;;;;;;6188517;23;20350;-88
2021/04/24 10:27:04;;;;;;;8.88;2.63;;;12.40;72.90;;;;;;6188743;23;20020;-91
2021/04/24 10:29:49;;;;;;;9.45;2.90;;;12.60;72.60;;;;;;6190608;23;20067;-91
2021/04/24 10:32:47;;;;;;;8.48;3.15;;;12.70;72.80;;;;;;6189511;23;20028;-93
2021/04/24 10:35:21;;;;;;;10.55;2.83;;;12.80;75.00;;;;;;6190334;23;20023;-94
2021/04/24 10:37:53;;;;;;;6.72;2.50;;;13.10;74.40;;;;;;6190336;23;20397;-94
2021/04/24 10:40:19;;;;;;;9.20;2.35;;;13.20;74.50;;;;;;6185339;23;20032;-93
2021/04/24 10:42:55;;;;;;;7.63;2.50;;;13.30;70.70;;;;;;6189624;23;20025;-94
2021/04/24 10:45:33;;;;;;;6.82;2.10;;;13.20;67.30;;;;;;6188747;23;20025;-92
2021/04/24 10:47:59;;;;;;;7.47;2.58;;;13.20;66.90;;;;;;6188194;23;20402;-94
2021/04/24 10:50:43;;;;;;;8.85;2.53;;;13.10;68.60;;;;;;6188526;23;20021;-93
2021/04/24 10:53:32;;;;;;;8.52;2.20;;;13.20;65.30;;;;;;6186596;23;20017;-90
2021/04/24 10:56:00;;;;;;;10.50;2.47;;;13.30;64.60;;;;;;6187950;23;20069;-91
2021/04/24 10:58:29;;;;;;;5.55;2.10;;;13.30;67.20;;;;;;6187355;23;20024;-93
2021/04/24 11:01:07;;;;;;;7.32;2.25;;;13.30;69.50;;;;;;6170767;23;20033;-93
2021/04/24 11:04:27;;;;;;;8.93;2.10;;;13.50;70.60;;;;;;6159168;23;20045;-94
2021/04/24 11:07:29;;;;;;;6.90;2.10;;;13.50;70.30;;;;;;6009494;23;20111;-91
2021/04/24 11:10:10;;;;;;;6.53;2.30;;;13.60;68.60;;;;;;6039986;23;20025;-90
2021/04/24 11:12:44;;;;;;;6.82;1.98;;;13.70;70.90;;;;;;6156080;23;20022;-90
2021/04/24 11:15:15;;;;;;;6.38;2.17;;;13.80;67.20;;;;;;6156983;23;20026;-91
2021/04/24 11:17:51;;;;;;;7.07;2.22;;;13.70;68.00;;;;;;6134737;23;20052;-92
2021/04/24 11:20:55;;;;;;;8.02;2.28;;;13.70;70.40;;;;;;6157459;23;20014;-91
2021/04/24 11:23:41;;;;;;;8.43;2.10;;;13.90;71.10;;;;;;6155493;23;20017;-92
2021/04/24 11:26:24;;;;;;;6.25;2.10;;;13.90;68.30;;;;;;6156258;23;20399;-90
2021/04/24 11:29:12;;;;;;;5.85;1.83;;;13.90;65.90;;;;;;6155532;23;20017;-93
2021/04/24 11:41:43;;;;;;;8.80;2.13;;;14.30;67.60;;;;;;6156555;23;20020;-92
2021/04/24 11:44:16;;;;;;;6.00;1.95;;;14.30;67.30;;;;;;6156384;23;20033;-91
2021/04/24 11:46:52;;;;;;;8.45;2.10;;;14.30;70.10;;;;;;6158086;23;20028;-92
2021/04/24 11:49:23;;;;;;;7.88;2.50;;;14.40;69.70;;;;;;6157277;23;20021;-92
2021/04/24 11:51:54;;;;;;;8.20;1.95;;;14.60;69.80;;;;;;6157762;23;20021;-92
2021/04/24 11:54:34;;;;;;;7.93;2.10;;;14.60;69.50;;;;;;6157364;23;20021;-91
2021/04/24 11:57:08;;;;;;;5.95;2.03;;;14.70;65.80;;;;;;6156324;23;20022;-92
2021/04/24 11:59:35;;;;;;;;;;;14.60;62.30;;;;;;6156993;23;20024;-90
2021/04/24 12:02:13;;;;;;;8.65;2.25;;;14.50;63.00;;;;;;6156608;23;20414;-91
2021/04/24 12:04:39;;;;;;;8.00;2.20;;;14.50;66.20;;;;;;6156061;23;20018;-92
2021/04/24 12:07:11;;;;;;;7.75;2.50;;;14.60;68.30;;;;;;6157562;23;20021;-93
2021/04/24 12:09:47;;;;;;;8.80;2.40;;;14.70;68.10;;;;;;6157926;23;20018;-89
2021/04/24 12:12:16;;;;;;;6.53;2.30;;;14.70;66.90;;;;;;6157783;23;20022;-92
2021/04/24 12:15:06;;;;;;;7.38;2.13;;;14.80;68.40;;;;;;6157292;23;20017;-94
2021/04/24 12:17:55;;;;;;;7.93;2.55;;;14.80;68.90;;;;;;6157709;23;20021;-90
2021/04/24 12:20:33;;;;;;;6.97;2.08;;;14.90;69.90;;;;;;6132985;23;20013;-94
2021/04/24 12:23:02;;;;;;;9.32;2.30;;;14.90;70.40;;;;;;6158455;23;20021;-92
2021/04/24 12:25:31;;;;;;;7.53;2.13;;;15.00;67.50;;;;;;6156860;23;20022;-95
2021/04/24 12:28:08;;;;;;;8.35;2.25;;;15.00;68.20;;;;;;6155932;23;20017;-92
2021/04/24 12:30:45;;;;;;;7.75;1.90;;;15.10;69.30;;;;;;6156505;23;20024;-89
2021/04/24 12:33:19;;;;;;;7.15;2.00;;;15.10;66.30;;;;;;6155656;23;20024;-89
2021/04/24 12:35:53;;;;;;;6.25;1.92;;;15.10;68.00;;;;;;6155964;23;20045;-90
2021/04/24 12:38:21;;;;;;;7.18;2.20;;;15.10;69.40;;;;;;6155652;23;20025;-89
2021/04/24 12:40:52;;;;;;;6.93;2.08;;;15.10;65.60;;;;;;6155200;23;20084;-90
2021/04/24 12:43:27;;;;;;;7.55;2.20;;;15.10;67.40;;;;;;6156301;23;20020;-92
2021/04/24 12:46:01;;;;;;;6.53;2.00;;;15.20;69.20;;;;;;6156439;23;20084;-94
2021/04/24 12:52:04;;;;;;;7.05;2.17;;;15.30;70.80;;;;;;6019168;23;20048;-94
2021/04/24 12:54:52;;;;;;;;;;;15.40;70.80;;;;;;6039320;23;20496;-93
2021/04/24 12:57:19;;;;;;;8.23;2.10;;;15.30;62.50;;;;;;6164380;23;19963;-93
2021/04/24 12:59:56;;;;;;;9.27;2.00;;;15.40;69.40;;;;;;6168697;23;20041;-95
2021/04/24 13:02:53;;;;;;;6.32;2.08;;;15.40;64.90;;;;;;6167311;23;20470;-96
2021/04/24 13:05:34;;;;;;;8.82;2.17;;;15.40;63.30;;;;;;6163100;23;20013;-94
2021/04/24 13:08:20;;;;;;;9.38;2.35;;;15.40;64.00;;;;;;6168265;23;20350;-96
2021/04/24 13:11:28;;;;;;;7.60;2.00;;;15.40;67.40;;;;;;6171442;23;20014;-96
2021/04/24 13:14:17;;;;;;;8.60;2.22;;;15.50;69.10;;;;;;6126691;23;20061;-96
2021/04/24 13:16:49;;;;;;;6.88;2.03;;;15.50;69.60;;;;;;6167255;23;20017;-95
2021/04/24 13:19:25;;;;;;;6.28;2.33;;;15.60;69.80;;;;;;6169080;23;20099;-96
2021/04/24 13:21:53;;;;;;;6.25;1.83;;;15.60;70.40;;;;;;6167107;23;20025;-96
2021/04/24 13:24:24;;;;;;;7.18;2.08;;;15.70;69.70;;;;;;6171405;23;20017;-95
2021/04/24 13:27:02;;;;;;;7.05;2.05;;;15.80;70.50;;;;;;6160512;23;20017;-94
2021/04/24 13:29:37;;;;;;;7.75;2.03;;;15.80;67.80;;;;;;6157141;23;20025;-92
2021/04/24 13:32:03;;;;;;;6.75;1.85;;;15.70;68.90;;;;;;6159460;23;20458;-89
2021/04/24 13:34:29;;;;;;;8.80;2.13;;;15.80;67.40;;;;;;6156044;23;20465;-91
2021/04/24 13:36:55;;;;;;;9.80;1.83;;;15.80;68.90;;;;;;6148038;23;20017;-90
2021/04/24 13:39:23;;;;;;;8.00;2.15;;;15.80;68.50;;;;;;6153303;23;20330;-88
2021/04/24 13:41:48;;;;;;;5.30;1.90;;;15.70;66.10;;;;;;6154366;23;20024;-90
2021/04/24 13:44:17;;;;;;;5.57;1.90;;;15.70;65.60;;;;;;6152268;23;20096;-88
2021/04/24 13:46:56;;;;;;;6.78;2.05;;;15.60;66.80;;;;;;6152759;23;20084;-88
2021/04/24 13:49:25;;;;;;;6.05;2.17;;;15.60;67.50;;;;;;6152704;23;20059;-89
2021/04/24 13:52:09;;;;;;;5.38;1.92;;;15.70;67.90;;;;;;6152046;23;20028;-88